Omaha, NE

11:07 PM CDT on August 29, 2015 (GMT -0500)
46th and Madison St | | Change Station
CLOSE
Current Station
Personal Weather Station
Location: Omaha, NE
Elevation: 1102 ft
Nearby Weather Stations

Elev 1102 ft 41.19 °N, 95.99 °W | Updated 2 minutes ago

Overcast
Overcast
66.0 °F
Feels Like 66.0 °F
N
0.0
Wind Variable Wind from SE
Gusts 0.0 mph

Today
High -- | Low -- °F
--% Chance of Precip.
Yesterday
High -- | Low -- °F
Precip. -- in
6:47 AM 8:01 PM
Full, 100% visible
Pressure 30.05 in
Visibility 10.0 miles
Clouds Overcast 1900 ft
Dew Point 63 °F
Humidity 91%
Rainfall 0.00 in
Snow Depth Not available.
UV 0 out of 12
Pollen 9.40 out of 12
Air Quality Not available.
Flu Activity Not available.
METAR KOFF 300358Z AUTO 15002KT 10SM OVC019 19/18 A3005 RMK AO2 SLP176 T01910180 $
Pressure 30.05 in
Visibility 10.0 miles
Clouds Overcast 1900 ft
Dew Point 63 °F
Humidity 91%
Rainfall 0.00 in
Snow Depth Not available.
UV 0 out of 12
Pollen 9.40 out of 12
Air Quality Not available.
Flu Activity Not available.
METAR KOFF 300358Z AUTO 15002KT 10SM OVC019 19/18 A3005 RMK AO2 SLP176 T01910180 $

10-Day Weather Forecast

×

Almanac

Astronomy

Aug. 29, 2015 Rise Set
Actual Time
Civil Twilight
Nautical Twilight
Astronomical Twilight
Moon
Length of Visible Light
Length of Day
Tomorrow will be .
, % of the Moon is Illuminated

Today's Extremes

State Highs State Lows

Community

WunderPhotos

Upload Photos

1,850,876 photos uploaded!

WunderBlogs® & News

Nearby

Air Quality

  Air Quality AQ Index Pollutant
Not available.

Snow Depth

Station Depth Elevation

Earthquake Activity

City Distance Mag. Time & Date
Minimum magnitude displayed is 2.5.

Coastal Water Temperatures

Place Temperature

Stations

Nearby Weather Stations

Station Location Temp. Windchill Dew Point Humidity Wind Precip. Elev Updated Type